Time;durP1;ratioP1;P1;durP2;ratioP2;P2;SDS_P1;SDS_P2;PMS_P1;PMS_P2;Temp;Humidity;BMP_temperature;BMP_pressure;BME280_temperature;BME280_humidity;BME280_pressure;Samples;Min_cycle;Max_cycle;Signal;HPM_P1;HPM_P2
2022/08/21 00:01:30;;;;;;;6.68;1.48;;;17.90;99.90;;;;;;5077150;28;20025;-45
2022/08/21 00:03:56;;;;;;;1.45;1.35;;;17.80;99.90;;;;;;5078895;28;20532;-36
2022/08/21 00:06:23;;;;;;;1.92;1.40;;;17.90;99.90;;;;;;5090151;28;20123;-38
2022/08/21 00:08:50;;;;;;;2.25;1.25;;;17.80;99.90;;;;;;5094162;28;20479;-36
2022/08/21 00:11:15;;;;;;;3.55;1.40;;;17.80;99.90;;;;;;5080571;28;20767;-35
2022/08/21 00:13:41;;;;;;;2.35;1.50;;;17.80;99.90;;;;;;5081229;28;20087;-37
2022/08/21 00:16:07;;;;;;;6.03;2.08;;;17.80;99.90;;;;;;5084111;28;20020;-35
2022/08/21 00:18:32;;;;;;;8.13;1.60;;;17.80;99.90;;;;;;5082383;28;20044;-33
2022/08/21 00:20:58;;;;;;;8.25;2.65;;;17.80;99.90;;;;;;5087238;28;20047;-37
2022/08/21 00:23:24;;;;;;;5.20;1.70;;;17.80;99.90;;;;;;5077607;28;20025;-37
2022/08/21 00:25:50;;;;;;;3.08;1.45;;;17.70;99.90;;;;;;5078755;28;20021;-37
2022/08/21 00:28:15;;;;;;;3.17;1.40;;;17.80;99.90;;;;;;5078262;28;20487;-35
2022/08/21 00:30:43;;;;;;;3.78;1.50;;;17.70;99.90;;;;;;5080652;28;20024;-37
2022/08/21 00:33:09;;;;;;;6.55;1.65;;;17.80;99.90;;;;;;5070646;28;20060;-37
2022/08/21 00:35:39;;;;;;;6.87;1.60;;;17.70;99.90;;;;;;5076204;28;20028;-37
2022/08/21 00:38:07;;;;;;;2.65;1.35;;;17.70;99.90;;;;;;5084765;28;20055;-37
2022/08/21 00:40:46;;;;;;;3.13;1.60;;;17.70;99.90;;;;;;5080935;28;20016;-37
2022/08/21 00:43:17;;;;;;;2.30;1.52;;;17.70;99.90;;;;;;5083654;28;20028;-37
2022/08/21 00:45:44;;;;;;;4.72;1.40;;;17.70;99.90;;;;;;5075268;28;20028;-36
2022/08/21 00:48:09;;;;;;;8.32;2.28;;;17.70;99.90;;;;;;5079085;28;20150;-36
2022/08/21 00:50:41;;;;;;;4.20;1.80;;;17.70;99.90;;;;;;5077373;28;20452;-36
2022/08/21 00:53:09;;;;;;;4.15;1.55;;;17.70;99.90;;;;;;5086782;28;20028;-36
2022/08/21 00:55:36;;;;;;;5.28;1.33;;;17.60;99.90;;;;;;5070406;28;20500;-37
2022/08/21 00:58:05;;;;;;;1.77;1.00;;;17.70;99.90;;;;;;5077784;28;20032;-37
2022/08/21 01:00:35;;;;;;;4.07;1.70;;;17.70;99.90;;;;;;5075043;28;20532;-37
2022/08/21 01:03:08;;;;;;;5.32;1.48;;;17.60;99.90;;;;;;5079672;28;20032;-35
2022/08/21 01:05:34;;;;;;;5.45;1.85;;;17.60;99.90;;;;;;5077151;28;20036;-37
2022/08/21 01:08:00;;;;;;;3.03;1.77;;;17.60;99.90;;;;;;5059149;28;20035;-31
2022/08/21 01:10:26;;;;;;;4.35;1.70;;;17.60;99.90;;;;;;5061634;28;20036;-32
2022/08/21 01:12:56;;;;;;;5.63;1.90;;;17.60;99.90;;;;;;5061922;28;20043;-30
2022/08/21 01:15:28;;;;;;;4.00;1.45;;;17.60;99.90;;;;;;5058105;28;20468;-32
2022/08/21 01:17:53;;;;;;;1.92;1.40;;;17.60;99.90;;;;;;5060232;28;20029;-34
2022/08/21 01:20:19;;;;;;;4.70;1.50;;;17.60;99.90;;;;;;5054759;28;20484;-30
2022/08/21 01:22:45;;;;;;;4.13;1.60;;;17.60;99.90;;;;;;5062849;28;20037;-31
2022/08/21 01:25:13;;;;;;;2.97;1.50;;;17.60;99.90;;;;;;5062119;28;20050;-32
2022/08/21 01:27:38;;;;;;;3.35;1.42;;;17.60;99.90;;;;;;5067832;28;20556;-33
2022/08/21 01:30:16;;;;;;;1.52;1.25;;;17.60;99.90;;;;;;5060657;28;20104;-48
2022/08/21 01:32:42;;;;;;;3.30;1.40;;;17.60;99.90;;;;;;5069603;28;20020;-37
2022/08/21 01:35:09;;;;;;;4.97;1.58;;;17.50;99.90;;;;;;5062450;28;20593;-30
2022/08/21 01:37:35;;;;;;;9.02;1.60;;;17.50;99.90;;;;;;5064616;28;20016;-30
2022/08/21 01:40:01;;;;;;;6.38;2.20;;;17.60;99.90;;;;;;5058929;28;20017;-32
2022/08/21 01:42:27;;;;;;;3.78;2.22;;;17.60;99.90;;;;;;5066645;28;20029;-54
2022/08/21 01:44:52;;;;;;;5.70;1.67;;;17.50;99.90;;;;;;5060286;28;20098;-32
2022/08/21 01:47:18;;;;;;;4.95;2.00;;;17.50;99.90;;;;;;5062562;28;20025;-32
2022/08/21 01:49:45;;;;;;;6.70;1.88;;;17.50;99.90;;;;;;5064534;28;20048;-30
2022/08/21 01:52:11;;;;;;;5.55;1.95;;;17.50;99.90;;;;;;5056394;28;20017;-29
2022/08/21 01:54:37;;;;;;;3.90;1.85;;;17.50;99.90;;;;;;5058729;28;20561;-35
2022/08/21 01:57:04;;;;;;;3.25;1.73;;;17.50;99.90;;;;;;5054317;28;20036;-30
2022/08/21 01:59:30;;;;;;;;;;;17.40;99.90;;;;;;5056171;28;20080;-31
2022/08/21 02:01:56;;;;;;;4.40;1.50;;;17.40;99.90;;;;;;5065836;28;20050;-29
2022/08/21 02:04:22;;;;;;;4.38;1.70;;;17.40;99.90;;;;;;5070187;28;20502;-48
2022/08/21 02:06:48;;;;;;;9.45;2.33;;;17.40;99.90;;;;;;5063424;28;20028;-32
2022/08/21 02:09:14;;;;;;;7.13;2.38;;;17.40;99.90;;;;;;5070121;28;20051;-38
2022/08/21 02:11:41;;;;;;;6.20;2.00;;;17.40;99.90;;;;;;5064426;28;20025;-30
2022/08/21 02:14:15;;;;;;;3.08;1.40;;;17.40;99.90;;;;;;5061420;28;20054;-29
2022/08/21 02:16:42;;;;;;;5.43;1.83;;;17.40;99.90;;;;;;5060866;28;20021;-29
2022/08/21 02:19:08;;;;;;;;;;;17.30;99.90;;;;;;5054957;28;20056;-32
2022/08/21 02:21:34;;;;;;;8.95;2.42;;;17.30;99.90;;;;;;5064061;28;19944;-30
2022/08/21 02:23:59;;;;;;;4.30;2.00;;;17.30;99.90;;;;;;5055820;28;20551;-33
2022/08/21 02:26:25;;;;;;;9.65;2.20;;;17.30;99.90;;;;;;5060323;28;20024;-42
2022/08/21 02:28:51;;;;;;;4.63;2.00;;;17.30;99.90;;;;;;5065190;28;20025;-35
2022/08/21 02:31:17;;;;;;;5.88;2.30;;;17.30;99.90;;;;;;5063928;28;20028;-30
2022/08/21 02:33:43;;;;;;;6.15;1.92;;;17.30;99.90;;;;;;5058357;28;20054;-36
2022/08/21 02:36:09;;;;;;;6.30;2.05;;;17.30;99.90;;;;;;5061311;28;20104;-29
2022/08/21 02:38:38;;;;;;;9.23;2.67;;;17.30;99.90;;;;;;5054396;28;20028;-32
2022/08/21 02:41:07;;;;;;;4.72;2.03;;;17.30;99.90;;;;;;5060700;28;20013;-34
2022/08/21 02:43:33;;;;;;;6.63;1.98;;;17.20;99.90;;;;;;5063789;28;20078;-32
2022/08/21 02:45:59;;;;;;;10.30;2.20;;;17.20;99.90;;;;;;5056711;28;20021;-37
2022/08/21 02:48:30;;;;;;;4.88;1.83;;;17.20;99.90;;;;;;5063857;28;20119;-30
2022/08/21 02:50:59;;;;;;;11.50;2.33;;;17.20;99.90;;;;;;5055658;28;20385;-30
2022/08/21 02:53:25;;;;;;;3.40;2.00;;;17.20;99.90;;;;;;5056122;28;20037;-34
2022/08/21 02:55:53;;;;;;;4.75;1.92;;;17.20;99.90;;;;;;5061553;28;20052;-32
2022/08/21 02:58:28;;;;;;;4.45;2.20;;;17.20;99.90;;;;;;5064508;28;20062;-33
2022/08/21 03:00:54;;;;;;;5.13;2.17;;;17.20;99.90;;;;;;5065512;28;20070;-30
2022/08/21 03:03:20;;;;;;;8.30;2.60;;;17.10;99.90;;;;;;5064691;28;20481;-33
2022/08/21 03:05:47;;;;;;;5.78;1.85;;;17.20;99.90;;;;;;5062956;28;20035;-33
2022/08/21 03:08:14;;;;;;;5.85;1.75;;;17.10;99.90;;;;;;5062270;28;20035;-29
2022/08/21 03:10:43;;;;;;;6.18;1.98;;;17.10;99.90;;;;;;5063753;28;20091;-31
2022/08/21 03:13:09;;;;;;;5.78;2.55;;;17.00;99.90;;;;;;5053705;28;20027;-29
2022/08/21 03:15:35;;;;;;;8.35;2.25;;;17.00;99.90;;;;;;5058718;28;20279;-35
2022/08/21 03:18:03;;;;;;;3.30;1.80;;;17.00;99.90;;;;;;5060347;28;20016;-47
2022/08/21 03:20:29;;;;;;;5.53;2.35;;;17.00;99.90;;;;;;5057472;28;20012;-37
2022/08/21 03:22:55;;;;;;;2.97;1.95;;;17.00;99.90;;;;;;5058962;28;20379;-36
2022/08/21 03:25:22;;;;;;;7.70;2.22;;;17.00;99.90;;;;;;5053786;28;20127;-33
2022/08/21 03:27:48;;;;;;;5.80;2.67;;;17.00;99.90;;;;;;5061154;28;20459;-32
2022/08/21 03:30:15;;;;;;;3.70;1.77;;;17.00;99.90;;;;;;5059019;28;20056;-36
2022/08/21 03:32:40;;;;;;;10.18;3.17;;;16.90;99.90;;;;;;5061531;28;20028;-32
2022/08/21 03:35:07;;;;;;;8.07;2.35;;;16.90;99.90;;;;;;5053791;28;20095;-32
2022/08/21 03:37:33;;;;;;;9.90;2.15;;;16.90;99.90;;;;;;5065890;28;20031;-35
2022/08/21 03:39:59;;;;;;;9.93;2.38;;;16.90;99.90;;;;;;5077773;28;20480;-35
2022/08/21 03:42:25;;;;;;;4.70;1.77;;;16.80;99.90;;;;;;5065507;28;20037;-30
2022/08/21 03:44:50;;;;;;;3.78;1.90;;;16.80;99.90;;;;;;5063238;28;20024;-33
2022/08/21 03:47:16;;;;;;;3.00;1.85;;;16.80;99.90;;;;;;5047961;28;20472;-37
2022/08/21 03:49:42;;;;;;;6.10;2.00;;;16.80;99.90;;;;;;5059067;28;20058;-38
2022/08/21 03:52:08;;;;;;;6.85;2.67;;;16.80;99.90;;;;;;5058618;28;20025;-37
2022/08/21 03:54:33;;;;;;;5.35;2.05;;;16.80;99.90;;;;;;5065104;28;20119;-36
2022/08/21 03:56:59;;;;;;;4.85;2.25;;;16.80;99.90;;;;;;5064082;28;20788;-37
2022/08/21 03:59:25;;;;;;;6.20;1.98;;;16.80;99.90;;;;;;5064399;28;20029;-35
2022/08/21 04:01:53;;;;;;;9.18;2.60;;;16.80;99.90;;;;;;5065351;28;20029;-37
2022/08/21 04:04:19;;;;;;;6.68;2.45;;;16.80;99.90;;;;;;5063938;28;20013;-37
2022/08/21 04:06:44;;;;;;;4.47;2.50;;;16.80;99.90;;;;;;5073248;28;20514;-36
2022/08/21 04:09:10;;;;;;;9.40;3.13;;;16.80;99.90;;;;;;5056372;28;20024;-36
2022/08/21 04:11:36;;;;;;;6.85;2.45;;;16.70;99.90;;;;;;5067923;28;20513;-38
2022/08/21 04:14:02;;;;;;;6.20;2.42;;;16.70;99.90;;;;;;5063725;28;20024;-37
2022/08/21 04:19:13;;;;;;;6.55;2.65;;;16.80;99.90;;;;;;5058716;28;20044;-37
2022/08/21 04:21:39;;;;;;;6.65;2.53;;;16.70;99.90;;;;;;5055119;28;20025;-37
2022/08/21 04:24:07;;;;;;;6.20;2.10;;;16.70;99.90;;;;;;5068694;28;20013;-35
2022/08/21 04:26:34;;;;;;;7.38;2.83;;;16.70;99.90;;;;;;5060691;28;20025;-37
2022/08/21 04:29:00;;;;;;;10.55;3.20;;;16.70;99.90;;;;;;5074295;28;20480;-35
2022/08/21 04:31:28;;;;;;;10.10;2.88;;;16.70;99.90;;;;;;5053980;28;20472;-36
2022/08/21 04:33:54;;;;;;;14.85;3.17;;;16.70;99.90;;;;;;5065379;28;20020;-38
2022/08/21 04:36:20;;;;;;;6.95;2.70;;;16.70;99.90;;;;;;5054613;28;20487;-37
2022/08/21 04:38:45;;;;;;;9.18;2.97;;;16.70;99.90;;;;;;5067505;28;20021;-36
2022/08/21 04:41:12;;;;;;;7.50;2.60;;;16.70;99.90;;;;;;5056827;28;20017;-37
2022/08/21 04:43:39;;;;;;;13.25;2.85;;;16.60;99.90;;;;;;5074679;28;20097;-43
2022/08/21 04:46:05;;;;;;;5.85;2.83;;;16.60;99.90;;;;;;5065374;28;20025;-39
2022/08/21 04:48:32;;;;;;;7.30;3.00;;;16.60;99.90;;;;;;5071698;28;20020;-36
2022/08/21 04:51:05;;;;;;;4.03;2.70;;;16.70;99.90;;;;;;5061870;28;20024;-38
2022/08/21 04:53:46;;;;;;;9.70;2.45;;;16.70;99.90;;;;;;5059478;28;20484;-36
2022/08/21 04:56:18;;;;;;;14.32;2.78;;;16.60;99.90;;;;;;5059648;28;20052;-44
2022/08/21 04:58:44;;;;;;;7.82;3.45;;;16.60;99.90;;;;;;5063965;28;20119;-37
2022/08/21 05:01:15;;;;;;;8.10;2.47;;;16.60;99.90;;;;;;5070329;28;20559;-38
2022/08/21 05:03:42;;;;;;;7.78;2.80;;;16.60;99.90;;;;;;5059466;28;20530;-38
2022/08/21 05:06:12;;;;;;;7.95;2.35;;;16.70;99.90;;;;;;5061813;28;20980;-35
2022/08/21 05:08:39;;;;;;;13.38;2.70;;;16.70;99.90;;;;;;5062647;28;20043;-37
2022/08/21 05:11:05;;;;;;;5.72;2.47;;;16.70;99.90;;;;;;5065549;28;20078;-38
2022/08/21 05:13:31;;;;;;;5.25;2.78;;;16.70;99.90;;;;;;5058185;28;20028;-35
2022/08/21 05:15:57;;;;;;;6.43;2.33;;;16.70;99.90;;;;;;5064532;28;20442;-37
2022/08/21 05:18:24;;;;;;;7.93;3.80;;;16.70;99.90;;;;;;5064622;28;20017;-37
2022/08/21 05:20:50;;;;;;;6.72;2.58;;;16.70;99.90;;;;;;5071340;28;20059;-37
2022/08/21 05:23:16;;;;;;;8.10;2.95;;;16.70;99.90;;;;;;5067750;28;20501;-39
2022/08/21 05:25:43;;;;;;;6.25;2.90;;;16.70;99.90;;;;;;5058766;28;20028;-39
2022/08/21 05:28:09;;;;;;;8.02;3.60;;;16.80;99.90;;;;;;5060048;28;20495;-40
2022/08/21 05:30:36;;;;;;;9.57;3.00;;;16.80;99.90;;;;;;5069826;28;20033;-36
2022/08/21 05:33:03;;;;;;;12.85;3.70;;;16.80;99.90;;;;;;5063802;28;20476;-37
2022/08/21 05:35:30;;;;;;;7.70;3.03;;;16.80;99.90;;;;;;5060419;28;20032;-37
2022/08/21 05:37:59;;;;;;;11.30;2.95;;;16.90;99.90;;;;;;5055612;28;20511;-39
2022/08/21 05:40:25;;;;;;;12.75;3.50;;;16.90;99.90;;;;;;5065942;28;20016;-49
2022/08/21 05:42:53;;;;;;;9.80;3.38;;;16.90;99.90;;;;;;5059698;28;20107;-40
2022/08/21 05:45:19;;;;;;;5.10;2.83;;;16.90;99.90;;;;;;5069181;28;20013;-38
2022/08/21 05:47:45;;;;;;;11.05;4.30;;;16.90;99.90;;;;;;5059509;28;20028;-36
2022/08/21 05:50:10;;;;;;;6.43;3.78;;;17.00;99.90;;;;;;5069526;28;20033;-37
2022/08/21 05:52:36;;;;;;;7.78;2.70;;;17.00;99.90;;;;;;5054531;28;20063;-37
2022/08/21 05:55:03;;;;;;;6.18;2.92;;;17.10;99.90;;;;;;5060886;28;20037;-38
2022/08/21 05:57:29;;;;;;;7.63;2.97;;;17.10;99.90;;;;;;5056172;28;20048;-38
2022/08/21 05:59:55;;;;;;;11.25;3.42;;;17.20;99.90;;;;;;5065995;28;20058;-36
2022/08/21 06:02:21;;;;;;;5.93;3.22;;;17.20;99.90;;;;;;5068848;28;20097;-37
2022/08/21 06:04:47;;;;;;;7.25;3.17;;;17.30;99.90;;;;;;5061167;28;20029;-37
2022/08/21 06:07:13;;;;;;;7.82;3.08;;;17.20;99.90;;;;;;5057726;28;20333;-35
2022/08/21 06:09:39;;;;;;;7.85;2.97;;;17.30;99.90;;;;;;5066622;28;20032;-34
2022/08/21 06:12:08;;;;;;;10.02;2.58;;;17.30;99.90;;;;;;5057907;28;20024;-36
2022/08/21 06:14:34;;;;;;;8.93;3.63;;;17.30;99.90;;;;;;5060066;28;20025;-37
2022/08/21 06:17:08;;;;;;;6.72;2.75;;;17.40;99.90;;;;;;5056583;28;20477;-36
2022/08/21 06:19:35;;;;;;;6.90;3.10;;;17.50;99.90;;;;;;5060149;28;20491;-37
2022/08/21 06:22:01;;;;;;;8.27;3.42;;;17.50;99.90;;;;;;5068935;28;20024;-38
2022/08/21 06:24:27;;;;;;;10.80;4.05;;;17.60;99.90;;;;;;5063169;28;20067;-39
2022/08/21 06:26:53;;;;;;;11.02;3.10;;;17.60;99.90;;;;;;5052579;28;20496;-39
2022/08/21 06:29:19;;;;;;;5.47;2.85;;;17.70;99.90;;;;;;5061609;28;20392;-37
2022/08/21 06:31:47;;;;;;;5.93;3.38;;;17.80;99.90;;;;;;5065475;28;20025;-36
2022/08/21 06:34:13;;;;;;;9.82;3.47;;;17.80;99.90;;;;;;5066852;28;20024;-37
2022/08/21 06:36:39;;;;;;;14.68;4.30;;;17.90;99.90;;;;;;5071352;28;20028;-37
2022/08/21 06:39:04;;;;;;;6.60;2.83;;;18.00;99.90;;;;;;5065129;28;20017;-37
2022/08/21 06:41:31;;;;;;;8.73;2.90;;;18.10;99.90;;;;;;5059923;28;20021;-40
2022/08/21 06:43:56;;;;;;;11.32;2.72;;;18.10;99.90;;;;;;5064906;28;20030;-37
2022/08/21 06:46:28;;;;;;;6.85;2.92;;;18.20;99.90;;;;;;5067018;28;20029;-37
2022/08/21 06:48:54;;;;;;;8.00;2.72;;;18.30;99.90;;;;;;5066650;28;20114;-33
2022/08/21 06:51:20;;;;;;;6.85;2.88;;;18.30;99.90;;;;;;5080481;28;20388;-36
2022/08/21 06:53:46;;;;;;;8.95;3.08;;;18.30;99.90;;;;;;5054995;28;20056;-37
2022/08/21 06:56:11;;;;;;;12.95;3.13;;;18.40;99.90;;;;;;5072704;28;20040;-38
2022/08/21 06:58:37;;;;;;;6.88;2.72;;;18.50;99.90;;;;;;5064774;28;20028;-39
2022/08/21 07:01:04;;;;;;;13.77;3.00;;;18.60;99.90;;;;;;5074662;28;20481;-36
2022/08/21 07:03:36;;;;;;;6.82;2.40;;;18.70;99.90;;;;;;5070361;28;20036;-36
2022/08/21 07:06:21;;;;;;;13.27;2.75;;;18.70;99.90;;;;;;5061942;28;20032;-37
2022/08/21 07:08:46;;;;;;;11.52;2.97;;;18.80;99.90;;;;;;5078109;28;20119;-38
2022/08/21 07:11:21;;;;;;;14.20;2.80;;;18.90;99.90;;;;;;5074991;28;20107;-38
2022/08/21 07:13:48;;;;;;;7.38;2.75;;;19.00;99.90;;;;;;5073865;28;20384;-38
2022/08/21 07:16:14;;;;;;;16.10;3.38;;;19.10;99.90;;;;;;5073831;28;20039;-38
2022/08/21 07:18:39;;;;;;;14.02;3.60;;;19.20;99.90;;;;;;5070361;28;21071;-54
2022/08/21 07:21:07;;;;;;;9.77;2.42;;;19.30;99.90;;;;;;5067670;28;20025;-38
2022/08/21 07:23:34;;;;;;;;;;;19.40;99.90;;;;;;5063903;28;20124;-37
2022/08/21 07:26:00;;;;;;;9.38;2.83;;;19.60;99.90;;;;;;5063763;28;19928;-39
2022/08/21 07:28:27;;;;;;;9.40;2.95;;;19.70;99.90;;;;;;5054624;28;20036;-38
2022/08/21 07:30:56;;;;;;;10.07;2.70;;;19.80;99.90;;;;;;5077426;28;20023;-39
2022/08/21 07:33:22;;;;;;;9.75;3.47;;;19.90;99.90;;;;;;5058160;28;20025;-36
2022/08/21 07:35:47;;;;;;;10.07;3.40;;;19.90;99.90;;;;;;5059783;28;20047;-36
2022/08/21 07:38:13;;;;;;;10.10;3.58;;;20.00;99.90;;;;;;5063631;28;20539;-37
2022/08/21 07:40:38;;;;;;;7.60;3.58;;;20.00;99.90;;;;;;5071271;28;20086;-37
2022/08/21 07:43:04;;;;;;;16.02;4.15;;;20.10;99.90;;;;;;5066436;28;20416;-38
2022/08/21 07:45:33;;;;;;;10.95;2.88;;;20.20;99.90;;;;;;5062783;28;20116;-37
2022/08/21 07:47:58;;;;;;;7.90;3.28;;;20.30;99.90;;;;;;5059026;28;20070;-35
2022/08/21 07:50:25;;;;;;;9.05;3.65;;;20.40;99.90;;;;;;5069746;28;20040;-38
2022/08/21 07:52:50;;;;;;;11.23;3.17;;;20.50;99.90;;;;;;5062741;28;20149;-36
2022/08/21 07:55:19;;;;;;;9.98;3.53;;;20.60;99.90;;;;;;5071722;28;20378;-38
2022/08/21 07:57:46;;;;;;;8.18;3.33;;;20.70;99.90;;;;;;5064773;28;20100;-38
2022/08/21 08:00:17;;;;;;;7.85;3.60;;;20.70;99.90;;;;;;5065639;28;20112;-32
2022/08/21 08:02:46;;;;;;;15.25;3.60;;;21.00;99.90;;;;;;5067992;28;20151;-40
2022/08/21 08:05:12;;;;;;;9.05;3.25;;;21.20;99.90;;;;;;5065995;28;20480;-36
2022/08/21 08:07:38;;;;;;;8.02;3.60;;;21.50;99.90;;;;;;5065383;28;20028;-36
2022/08/21 08:10:06;;;;;;;17.33;3.45;;;21.70;99.90;;;;;;5060851;28;20388;-39
2022/08/21 08:12:33;;;;;;;7.80;3.42;;;21.90;99.90;;;;;;5059548;28;20021;-37
2022/08/21 08:15:00;;;;;;;11.02;3.47;;;21.90;99.90;;;;;;5061645;28;20021;-38
2022/08/21 08:17:26;;;;;;;;;;;21.80;99.90;;;;;;5070344;28;20025;-35
2022/08/21 08:19:52;;;;;;;7.40;3.95;;;21.60;99.90;;;;;;5066708;28;19912;-37
2022/08/21 08:22:21;;;;;;;10.52;2.83;;;21.40;99.90;;;;;;5073447;28;20052;-37
2022/08/21 08:24:48;;;;;;;5.60;2.97;;;21.50;99.90;;;;;;5057113;28;20052;-38
2022/08/21 08:27:14;;;;;;;9.55;3.65;;;21.70;99.90;;;;;;5057358;28;20025;-38
2022/08/21 08:29:40;;;;;;;5.72;2.80;;;21.80;99.90;;;;;;5063632;28;20559;-38
2022/08/21 08:32:07;;;;;;;8.07;3.53;;;21.90;99.90;;;;;;5062909;28;20025;-37
2022/08/21 08:34:34;;;;;;;11.10;3.83;;;22.10;99.90;;;;;;5068958;28;20035;-36
2022/08/21 08:37:00;;;;;;;19.63;3.83;;;22.10;99.90;;;;;;5063405;28;20054;-35
2022/08/21 08:39:26;;;;;;;8.40;3.03;;;22.20;99.90;;;;;;5071066;28;20108;-37
2022/08/21 08:42:13;;;;;;;12.60;3.28;;;22.30;99.90;;;;;;5055468;28;20103;-37
2022/08/21 08:44:40;;;;;;;9.65;3.50;;;22.60;99.90;;;;;;5070271;28;20043;-36
2022/08/21 08:47:05;;;;;;;2.92;2.25;;;22.70;99.90;;;;;;5063658;28;20024;-38
2022/08/21 08:49:47;;;;;;;7.93;2.45;;;22.90;99.90;;;;;;5065031;28;20551;-36
2022/08/21 08:52:33;;;;;;;7.90;2.38;;;22.80;99.90;;;;;;5064423;28;20528;-38
2022/08/21 08:55:12;;;;;;;11.32;3.17;;;22.90;99.90;;;;;;5063549;28;20072;-38
2022/08/21 08:57:42;;;;;;;8.65;3.10;;;23.10;99.90;;;;;;5054360;28;20357;-37
2022/08/21 09:00:13;;;;;;;9.07;2.42;;;23.30;99.90;;;;;;5057201;28;20021;-39
2022/08/21 09:02:40;;;;;;;7.82;2.60;;;23.50;99.90;;;;;;5063476;28;20032;-32
2022/08/21 09:05:07;;;;;;;8.68;2.15;;;23.60;99.90;;;;;;5064794;28;20101;-33
2022/08/21 09:07:51;;;;;;;;;;;23.80;99.90;;;;;;5062075;28;20033;-33
2022/08/21 09:10:21;;;;;;;9.98;2.50;;;24.10;99.90;;;;;;5053590;28;20042;-32
2022/08/21 09:13:03;;;;;;;11.70;3.17;;;24.50;99.90;;;;;;5053903;28;20392;-33
2022/08/21 09:16:06;;;;;;;8.35;2.50;;;24.70;99.90;;;;;;5064574;28;20041;-30
2022/08/21 09:19:07;;;;;;;5.15;2.35;;;24.60;99.90;;;;;;5053308;28;20086;-29
2022/08/21 09:22:04;;;;;;;2.55;1.83;;;24.30;99.90;;;;;;5064302;28;20335;-30
2022/08/21 09:24:44;;;;;;;3.05;1.75;;;24.20;99.90;;;;;;5061825;28;20060;-31
2022/08/21 09:27:11;;;;;;;10.23;2.92;;;24.00;99.90;;;;;;5062380;28;20039;-30
2022/08/21 09:29:43;;;;;;;6.25;1.88;;;23.90;99.90;;;;;;5067031;28;20452;-31
2022/08/21 09:32:18;;;;;;;7.18;1.50;;;24.10;99.90;;;;;;5064400;28;20350;-35
2022/08/21 09:34:54;;;;;;;5.88;2.30;;;24.60;99.90;;;;;;5058117;28;20017;-29
2022/08/21 09:37:20;;;;;;;6.63;1.83;;;24.80;99.90;;;;;;5069403;28;20021;-34
2022/08/21 09:39:45;;;;;;;6.82;1.92;;;24.60;99.90;;;;;;5054063;28;20481;-34
2022/08/21 09:42:20;;;;;;;2.88;1.70;;;24.40;99.90;;;;;;5053241;28;20052;-30
2022/08/21 09:44:46;;;;;;;9.23;2.28;;;24.10;99.90;;;;;;5053121;28;20017;-32
2022/08/21 09:47:16;;;;;;;3.85;1.27;;;23.80;99.90;;;;;;5054639;28;20029;-35
2022/08/21 09:49:44;;;;;;;12.45;1.48;;;23.40;99.90;;;;;;5069802;28;20028;-32
2022/08/21 09:52:21;;;;;;;6.03;1.73;;;23.10;99.90;;;;;;5062168;28;20108;-31
2022/08/21 09:54:52;;;;;;;4.97;1.35;;;22.90;99.90;;;;;;5066510;28;20044;-33
2022/08/21 09:57:39;;;;;;;3.83;1.55;;;23.00;99.90;;;;;;5059638;28;20487;-37
2022/08/21 10:00:26;;;;;;;9.85;1.60;;;23.40;99.90;;;;;;5059446;28;20074;-31
2022/08/21 10:02:55;;;;;;;7.97;1.73;;;23.60;99.90;;;;;;5054052;28;20037;-35
2022/08/21 10:05:22;;;;;;;8.02;2.08;;;23.50;99.90;;;;;;5064259;28;20484;-46
2022/08/21 10:07:48;;;;;;;;;;;23.50;99.90;;;;;;5065526;28;20051;-37
2022/08/21 10:10:21;;;;;;;8.30;1.58;;;23.80;99.90;;;;;;5063382;28;20005;-34
2022/08/21 10:13:14;;;;;;;4.85;1.50;;;24.20;99.90;;;;;;5064282;28;20024;-32
2022/08/21 10:15:51;;;;;;;4.47;1.70;;;25.00;99.90;;;;;;5061811;28;20032;-31
2022/08/21 10:18:41;;;;;;;6.72;1.67;;;25.70;99.90;;;;;;5053646;28;20061;-37
2022/08/21 10:21:23;;;;;;;9.70;2.05;;;26.10;99.90;;;;;;5055887;28;20013;-35
2022/08/21 10:24:04;;;;;;;3.42;1.33;;;26.20;99.90;;;;;;5051915;28;20370;-32
2022/08/21 10:26:47;;;;;;;3.22;1.25;;;26.10;99.90;;;;;;5052792;28;20783;-34
2022/08/21 10:29:21;;;;;;;4.18;1.30;;;25.90;99.90;;;;;;5065433;28;20082;-31
2022/08/21 10:32:18;;;;;;;4.35;1.33;;;25.80;99.90;;;;;;5059796;28;20036;-36
2022/08/21 10:34:55;;;;;;;5.70;1.63;;;26.00;99.90;;;;;;5031658;28;20556;-40
2022/08/21 10:37:47;;;;;;;6.85;1.25;;;26.30;99.90;;;;;;5066460;28;20067;-34
2022/08/21 10:40:21;;;;;;;7.07;1.25;;;26.50;99.90;;;;;;5069655;28;20039;-38
2022/08/21 10:42:59;;;;;;;5.28;1.75;;;26.80;99.80;;;;;;5061060;28;20384;-30
2022/08/21 10:46:07;;;;;;;6.32;1.33;;;26.80;99.40;;;;;;5058926;28;20028;-34
2022/08/21 10:48:47;;;;;;;5.28;1.65;;;26.50;99.60;;;;;;5069909;28;20039;-33
2022/08/21 10:51:39;;;;;;;11.57;2.10;;;26.30;99.50;;;;;;5056290;28;20043;-35
2022/08/21 10:54:17;;;;;;;5.60;1.52;;;26.20;99.90;;;;;;5051779;28;20103;-30
2022/08/21 10:56:46;;;;;;;9.90;1.45;;;26.30;99.90;;;;;;5063058;28;20032;-33
2022/08/21 10:59:18;;;;;;;6.40;1.63;;;26.50;99.90;;;;;;5061507;28;20024;-34
2022/08/21 11:01:58;;;;;;;4.30;1.23;;;26.40;99.50;;;;;;5063820;28;20844;-33
2022/08/21 11:04:37;;;;;;;2.67;1.40;;;25.80;99.80;;;;;;5056855;28;20077;-33
2022/08/21 11:07:26;;;;;;;6.50;1.35;;;25.20;99.90;;;;;;5061579;28;20032;-32
2022/08/21 11:09:55;;;;;;;3.70;1.52;;;24.70;99.90;;;;;;5063610;28;20515;-35
2022/08/21 11:12:59;;;;;;;5.75;1.70;;;24.00;99.90;;;;;;5062155;28;20037;-33
2022/08/21 11:16:00;;;;;;;11.02;2.05;;;23.70;99.90;;;;;;5038320;28;20045;-31
2022/08/21 11:18:40;;;;;;;9.75;1.75;;;23.40;99.90;;;;;;5060998;28;20033;-33
2022/08/21 11:21:34;;;;;;;7.57;2.03;;;23.10;99.90;;;;;;5056951;28;20075;-31
2022/08/21 11:24:14;;;;;;;14.13;2.28;;;23.00;99.90;;;;;;5057640;28;20059;-32
2022/08/21 11:27:04;;;;;;;7.13;2.40;;;23.00;99.90;;;;;;5053869;28;20104;-29
2022/08/21 11:29:35;;;;;;;9.73;1.77;;;23.00;99.90;;;;;;5056299;28;20432;-58
2022/08/21 11:32:23;;;;;;;7.53;1.52;;;23.30;99.90;;;;;;5056191;28;20116;-29
2022/08/21 11:34:51;;;;;;;11.25;2.55;;;23.80;99.90;;;;;;5053559;28;20385;-32
2022/08/21 11:37:42;;;;;;;13.30;2.45;;;24.20;99.90;;;;;;5065813;28;20024;-54
2022/08/21 11:40:27;;;;;;;7.80;1.83;;;24.40;99.90;;;;;;5057166;28;20025;-33
2022/08/21 11:43:02;;;;;;;7.55;1.70;;;24.60;99.90;;;;;;5062601;28;20027;-31
2022/08/21 11:45:47;;;;;;;4.88;1.50;;;24.50;99.90;;;;;;5064793;28;20120;-35
2022/08/21 11:48:13;;;;;;;6.85;2.42;;;24.50;99.90;;;;;;5057946;28;20411;-31
2022/08/21 11:50:43;;;;;;;6.78;1.33;;;24.60;99.90;;;;;;5066440;28;20078;-36
2022/08/21 11:53:14;;;;;;;4.90;2.40;;;24.90;99.90;;;;;;5067452;28;20476;-33
2022/08/21 11:58:59;;;;;;;6.05;1.65;;;25.50;99.90;;;;;;5058943;28;20063;-33
2022/08/21 12:01:30;;;;;;;8.88;1.42;;;25.60;99.90;;;;;;5067243;28;20472;-31
2022/08/21 12:04:01;;;;;;;3.72;1.27;;;25.80;99.90;;;;;;5056159;28;20104;-33
2022/08/21 12:06:37;;;;;;;4.43;1.40;;;25.70;99.90;;;;;;5059314;28;20473;-36
2022/08/21 12:09:26;;;;;;;11.25;1.38;;;25.40;99.90;;;;;;5057863;28;20492;-30
2022/08/21 12:12:00;;;;;;;7.55;1.80;;;25.20;99.90;;;;;;5054128;28;20025;-33
2022/08/21 12:14:46;;;;;;;6.38;1.38;;;25.10;99.90;;;;;;5055902;28;20055;-31
2022/08/21 12:17:34;;;;;;;3.27;1.80;;;25.20;99.90;;;;;;5063920;28;20046;-32
2022/08/21 12:20:21;;;;;;;4.82;1.60;;;25.50;99.90;;;;;;5057442;28;20033;-35
2022/08/21 12:23:02;;;;;;;8.48;2.83;;;25.90;99.60;;;;;;5055368;28;21860;-32
2022/08/21 12:25:41;;;;;;;7.90;1.38;;;25.80;99.80;;;;;;5050815;28;20417;-32
2022/08/21 12:28:14;;;;;;;6.40;1.38;;;25.30;99.90;;;;;;5061101;28;20412;-30
2022/08/21 12:30:44;;;;;;;6.22;1.60;;;24.80;99.90;;;;;;5055366;28;20536;-30
2022/08/21 12:33:34;;;;;;;5.93;1.75;;;24.40;99.90;;;;;;5062966;28;20108;-32
2022/08/21 12:36:13;;;;;;;9.38;1.65;;;24.20;99.90;;;;;;5054467;28;20033;-30
2022/08/21 12:38:46;;;;;;;3.58;1.15;;;23.80;99.90;;;;;;5063018;28;20090;-40
2022/08/21 12:41:27;;;;;;;4.50;1.60;;;23.30;99.90;;;;;;5057242;28;20025;-32
2022/08/21 12:44:07;;;;;;;5.93;1.23;;;23.30;99.90;;;;;;5056859;28;20503;-33
2022/08/21 12:46:58;;;;;;;5.38;1.38;;;23.50;99.90;;;;;;5053200;28;20029;-30
2022/08/21 12:49:42;;;;;;;6.93;1.90;;;23.50;99.90;;;;;;5060870;28;20036;-32
2022/08/21 12:52:21;;;;;;;8.18;1.80;;;23.60;99.90;;;;;;5054381;28;20509;-39
2022/08/21 12:54:47;;;;;;;4.05;1.63;;;23.90;99.90;;;;;;5058929;28;20523;-34
2022/08/21 12:57:25;;;;;;;4.75;1.48;;;24.00;99.90;;;;;;5054443;28;20108;-48
2022/08/21 13:00:00;;;;;;;6.55;1.40;;;24.10;99.90;;;;;;5059627;28;20031;-39
2022/08/21 13:02:31;;;;;;;2.13;1.02;;;24.60;99.90;;;;;;5049475;28;20017;-30
2022/08/21 13:05:01;;;;;;;7.47;1.77;;;24.80;99.90;;;;;;5055685;28;20040;-42
2022/08/21 13:07:31;;;;;;;7.20;1.42;;;24.70;99.90;;;;;;5060257;28;20040;-32
2022/08/21 13:10:02;;;;;;;2.95;1.17;;;24.60;99.90;;;;;;5055112;28;20375;-36
2022/08/21 13:12:29;;;;;;;4.25;1.30;;;24.60;99.90;;;;;;5066257;28;20067;-39